sensor_id;sensor_type;location;lat;lon;timestamp;P1;durP1;ratioP1;P2;durP2;ratioP2
61330;SDS011;57640;52.472;-1.950;2023-07-22T00:01:58;2.55;;;1.10;;
61330;SDS011;57640;52.472;-1.950;2023-07-22T00:05:07;1.13;;;0.98;;
61330;SDS011;57640;52.472;-1.950;2023-07-22T00:08:12;1.95;;;0.93;;
61330;SDS011;57640;52.472;-1.950;2023-07-22T00:11:18;2.45;;;0.95;;
61330;SDS011;57640;52.472;-1.950;2023-07-22T00:14:24;1.70;;;1.00;;
61330;SDS011;57640;52.472;-1.950;2023-07-22T00:17:29;1.80;;;1.00;;
61330;SDS011;57640;52.472;-1.950;2023-07-22T00:20:37;1.67;;;1.00;;
61330;SDS011;57640;52.472;-1.950;2023-07-22T00:23:43;1.55;;;0.93;;
61330;SDS011;57640;52.472;-1.950;2023-07-22T00:26:49;1.55;;;0.95;;
61330;SDS011;57640;52.472;-1.950;2023-07-22T00:29:55;1.20;;;1.00;;
61330;SDS011;57640;52.472;-1.950;2023-07-22T00:33:00;1.23;;;0.98;;
61330;SDS011;57640;52.472;-1.950;2023-07-22T00:36:08;1.92;;;1.00;;
61330;SDS011;57640;52.472;-1.950;2023-07-22T00:39:15;1.63;;;1.00;;
61330;SDS011;57640;52.472;-1.950;2023-07-22T00:42:21;1.50;;;1.02;;
61330;SDS011;57640;52.472;-1.950;2023-07-22T00:45:26;1.25;;;0.90;;
61330;SDS011;57640;52.472;-1.950;2023-07-22T00:48:33;1.25;;;1.00;;
61330;SDS011;57640;52.472;-1.950;2023-07-22T00:51:41;1.92;;;0.98;;
61330;SDS011;57640;52.472;-1.950;2023-07-22T00:54:46;1.17;;;0.90;;
61330;SDS011;57640;52.472;-1.950;2023-07-22T00:57:55;1.70;;;1.00;;
61330;SDS011;57640;52.472;-1.950;2023-07-22T01:01:01;1.98;;;1.20;;
61330;SDS011;57640;52.472;-1.950;2023-07-22T01:04:08;1.52;;;0.90;;
61330;SDS011;57640;52.472;-1.950;2023-07-22T01:07:16;1.92;;;1.10;;
61330;SDS011;57640;52.472;-1.950;2023-07-22T01:10:22;1.50;;;1.00;;
61330;SDS011;57640;52.472;-1.950;2023-07-22T01:13:27;1.75;;;1.10;;
61330;SDS011;57640;52.472;-1.950;2023-07-22T01:16:32;1.10;;;1.00;;
61330;SDS011;57640;52.472;-1.950;2023-07-22T01:19:38;1.52;;;1.00;;
61330;SDS011;57640;52.472;-1.950;2023-07-22T01:22:49;1.63;;;1.10;;
61330;SDS011;57640;52.472;-1.950;2023-07-22T01:25:57;1.70;;;1.20;;
61330;SDS011;57640;52.472;-1.950;2023-07-22T01:29:04;1.48;;;1.17;;
61330;SDS011;57640;52.472;-1.950;2023-07-22T01:32:12;2.30;;;1.20;;
61330;SDS011;57640;52.472;-1.950;2023-07-22T01:35:19;1.10;;;1.00;;
61330;SDS011;57640;52.472;-1.950;2023-07-22T01:38:29;1.88;;;1.17;;
61330;SDS011;57640;52.472;-1.950;2023-07-22T01:41:34;1.30;;;1.00;;
61330;SDS011;57640;52.472;-1.950;2023-07-22T01:44:40;1.50;;;1.10;;
61330;SDS011;57640;52.472;-1.950;2023-07-22T01:47:48;2.22;;;1.40;;
61330;SDS011;57640;52.472;-1.950;2023-07-22T01:50:53;1.75;;;1.30;;
61330;SDS011;57640;52.472;-1.950;2023-07-22T01:54:02;1.85;;;1.30;;
61330;SDS011;57640;52.472;-1.950;2023-07-22T01:57:10;1.83;;;1.20;;
61330;SDS011;57640;52.472;-1.950;2023-07-22T02:00:15;1.50;;;1.10;;
61330;SDS011;57640;52.472;-1.950;2023-07-22T02:03:23;1.92;;;1.35;;
61330;SDS011;57640;52.472;-1.950;2023-07-22T02:06:29;2.35;;;1.33;;
61330;SDS011;57640;52.472;-1.950;2023-07-22T02:09:38;2.80;;;1.30;;
61330;SDS011;57640;52.472;-1.950;2023-07-22T02:12:44;2.47;;;1.40;;
61330;SDS011;57640;52.472;-1.950;2023-07-22T02:15:50;2.70;;;1.42;;
61330;SDS011;57640;52.472;-1.950;2023-07-22T02:18:59;1.38;;;1.20;;
61330;SDS011;57640;52.472;-1.950;2023-07-22T02:22:05;2.17;;;1.38;;
61330;SDS011;57640;52.472;-1.950;2023-07-22T02:25:17;1.88;;;1.27;;
61330;SDS011;57640;52.472;-1.950;2023-07-22T02:28:25;2.75;;;1.10;;
61330;SDS011;57640;52.472;-1.950;2023-07-22T02:31:31;1.75;;;1.30;;
61330;SDS011;57640;52.472;-1.950;2023-07-22T02:34:37;1.88;;;1.45;;
61330;SDS011;57640;52.472;-1.950;2023-07-22T02:37:44;2.00;;;1.20;;
61330;SDS011;57640;52.472;-1.950;2023-07-22T02:40:52;2.15;;;1.30;;
61330;SDS011;57640;52.472;-1.950;2023-07-22T02:43:58;1.95;;;1.40;;
61330;SDS011;57640;52.472;-1.950;2023-07-22T02:47:03;1.73;;;1.20;;
61330;SDS011;57640;52.472;-1.950;2023-07-22T02:50:09;2.05;;;1.50;;
61330;SDS011;57640;52.472;-1.950;2023-07-22T02:53:21;2.58;;;1.30;;
61330;SDS011;57640;52.472;-1.950;2023-07-22T02:56:30;1.80;;;1.30;;
61330;SDS011;57640;52.472;-1.950;2023-07-22T02:59:37;1.67;;;1.38;;
61330;SDS011;57640;52.472;-1.950;2023-07-22T03:02:42;3.05;;;1.55;;
61330;SDS011;57640;52.472;-1.950;2023-07-22T03:05:48;2.10;;;1.30;;
61330;SDS011;57640;52.472;-1.950;2023-07-22T03:08:54;2.35;;;1.42;;
61330;SDS011;57640;52.472;-1.950;2023-07-22T03:12:03;2.05;;;1.50;;
61330;SDS011;57640;52.472;-1.950;2023-07-22T03:15:09;1.95;;;1.40;;
61330;SDS011;57640;52.472;-1.950;2023-07-22T03:18:15;2.55;;;1.52;;
61330;SDS011;57640;52.472;-1.950;2023-07-22T03:21:21;2.40;;;1.63;;
61330;SDS011;57640;52.472;-1.950;2023-07-22T03:24:26;2.65;;;1.50;;
61330;SDS011;57640;52.472;-1.950;2023-07-22T03:27:36;2.58;;;1.48;;
61330;SDS011;57640;52.472;-1.950;2023-07-22T03:30:42;1.65;;;1.50;;
61330;SDS011;57640;52.472;-1.950;2023-07-22T03:33:49;2.08;;;1.67;;
61330;SDS011;57640;52.472;-1.950;2023-07-22T03:36:55;2.00;;;1.55;;
61330;SDS011;57640;52.472;-1.950;2023-07-22T03:40:01;2.40;;;1.50;;
61330;SDS011;57640;52.472;-1.950;2023-07-22T03:43:16;1.77;;;1.30;;
61330;SDS011;57640;52.472;-1.950;2023-07-22T03:46:23;1.77;;;1.42;;
61330;SDS011;57640;52.472;-1.950;2023-07-22T03:49:29;2.47;;;1.58;;
61330;SDS011;57640;52.472;-1.950;2023-07-22T03:52:35;2.47;;;1.48;;
61330;SDS011;57640;52.472;-1.950;2023-07-22T03:55:40;2.13;;;1.50;;
61330;SDS011;57640;52.472;-1.950;2023-07-22T03:58:48;3.17;;;1.52;;
61330;SDS011;57640;52.472;-1.950;2023-07-22T04:01:54;2.10;;;1.58;;
61330;SDS011;57640;52.472;-1.950;2023-07-22T04:04:59;3.20;;;1.40;;
61330;SDS011;57640;52.472;-1.950;2023-07-22T04:08:04;2.05;;;1.60;;
61330;SDS011;57640;52.472;-1.950;2023-07-22T04:11:10;2.78;;;1.75;;
61330;SDS011;57640;52.472;-1.950;2023-07-22T04:14:19;2.42;;;1.52;;
61330;SDS011;57640;52.472;-1.950;2023-07-22T04:17:25;2.67;;;1.77;;
61330;SDS011;57640;52.472;-1.950;2023-07-22T04:20:31;2.67;;;1.90;;
61330;SDS011;57640;52.472;-1.950;2023-07-22T04:23:38;3.10;;;1.70;;
61330;SDS011;57640;52.472;-1.950;2023-07-22T04:26:44;2.95;;;1.80;;
61330;SDS011;57640;52.472;-1.950;2023-07-22T04:29:52;3.03;;;1.67;;
61330;SDS011;57640;52.472;-1.950;2023-07-22T04:32:58;2.50;;;1.60;;
61330;SDS011;57640;52.472;-1.950;2023-07-22T04:36:04;2.22;;;1.88;;
61330;SDS011;57640;52.472;-1.950;2023-07-22T04:39:10;3.15;;;1.58;;
61330;SDS011;57640;52.472;-1.950;2023-07-22T04:42:15;2.47;;;1.63;;
61330;SDS011;57640;52.472;-1.950;2023-07-22T04:45:23;2.33;;;1.70;;
61330;SDS011;57640;52.472;-1.950;2023-07-22T04:48:29;1.88;;;1.50;;
61330;SDS011;57640;52.472;-1.950;2023-07-22T04:51:38;2.83;;;2.00;;
61330;SDS011;57640;52.472;-1.950;2023-07-22T04:54:44;2.03;;;1.83;;
61330;SDS011;57640;52.472;-1.950;2023-07-22T04:57:50;3.05;;;2.00;;
61330;SDS011;57640;52.472;-1.950;2023-07-22T05:00:58;2.92;;;1.90;;
61330;SDS011;57640;52.472;-1.950;2023-07-22T05:04:03;2.45;;;1.77;;
61330;SDS011;57640;52.472;-1.950;2023-07-22T05:07:09;3.30;;;2.00;;
61330;SDS011;57640;52.472;-1.950;2023-07-22T05:10:14;2.95;;;2.00;;
61330;SDS011;57640;52.472;-1.950;2023-07-22T05:13:21;3.10;;;2.05;;
61330;SDS011;57640;52.472;-1.950;2023-07-22T05:16:29;3.40;;;2.00;;
61330;SDS011;57640;52.472;-1.950;2023-07-22T05:19:34;2.97;;;2.38;;
61330;SDS011;57640;52.472;-1.950;2023-07-22T05:22:40;4.30;;;2.13;;
61330;SDS011;57640;52.472;-1.950;2023-07-22T05:25:50;2.42;;;2.00;;
61330;SDS011;57640;52.472;-1.950;2023-07-22T05:28:55;3.80;;;2.10;;
61330;SDS011;57640;52.472;-1.950;2023-07-22T05:32:04;3.45;;;2.33;;
61330;SDS011;57640;52.472;-1.950;2023-07-22T05:38:14;3.92;;;2.00;;
61330;SDS011;57640;52.472;-1.950;2023-07-22T05:41:20;3.83;;;2.40;;
61330;SDS011;57640;52.472;-1.950;2023-07-22T05:44:25;3.28;;;2.35;;
61330;SDS011;57640;52.472;-1.950;2023-07-22T05:47:33;3.15;;;2.20;;
61330;SDS011;57640;52.472;-1.950;2023-07-22T05:50:38;3.45;;;2.40;;
61330;SDS011;57640;52.472;-1.950;2023-07-22T05:53:44;3.38;;;2.35;;
61330;SDS011;57640;52.472;-1.950;2023-07-22T05:56:49;3.65;;;2.00;;
61330;SDS011;57640;52.472;-1.950;2023-07-22T05:59:55;3.03;;;2.38;;
61330;SDS011;57640;52.472;-1.950;2023-07-22T06:03:04;3.28;;;2.45;;
61330;SDS011;57640;52.472;-1.950;2023-07-22T06:06:09;3.53;;;2.80;;
61330;SDS011;57640;52.472;-1.950;2023-07-22T06:09:14;4.28;;;2.55;;
61330;SDS011;57640;52.472;-1.950;2023-07-22T06:12:20;4.15;;;2.70;;
61330;SDS011;57640;52.472;-1.950;2023-07-22T06:15:25;3.58;;;2.60;;
61330;SDS011;57640;52.472;-1.950;2023-07-22T06:18:33;3.40;;;2.60;;
61330;SDS011;57640;52.472;-1.950;2023-07-22T06:21:39;3.92;;;2.50;;
61330;SDS011;57640;52.472;-1.950;2023-07-22T06:24:44;3.35;;;2.40;;
61330;SDS011;57640;52.472;-1.950;2023-07-22T06:27:49;3.63;;;2.80;;
61330;SDS011;57640;52.472;-1.950;2023-07-22T06:30:56;3.45;;;2.50;;
61330;SDS011;57640;52.472;-1.950;2023-07-22T06:34:04;3.28;;;2.42;;
61330;SDS011;57640;52.472;-1.950;2023-07-22T06:37:10;3.80;;;2.20;;
61330;SDS011;57640;52.472;-1.950;2023-07-22T06:40:15;4.20;;;2.70;;
61330;SDS011;57640;52.472;-1.950;2023-07-22T06:43:20;3.00;;;2.20;;
61330;SDS011;57640;52.472;-1.950;2023-07-22T06:46:26;3.92;;;2.53;;
61330;SDS011;57640;52.472;-1.950;2023-07-22T06:49:34;4.00;;;2.85;;
61330;SDS011;57640;52.472;-1.950;2023-07-22T06:52:39;4.40;;;2.80;;
61330;SDS011;57640;52.472;-1.950;2023-07-22T06:55:48;4.25;;;2.72;;
61330;SDS011;57640;52.472;-1.950;2023-07-22T06:58:54;3.50;;;2.47;;
61330;SDS011;57640;52.472;-1.950;2023-07-22T07:01:59;3.10;;;2.20;;
61330;SDS011;57640;52.472;-1.950;2023-07-22T07:05:07;4.40;;;2.70;;
61330;SDS011;57640;52.472;-1.950;2023-07-22T07:08:13;3.65;;;2.50;;
61330;SDS011;57640;52.472;-1.950;2023-07-22T07:11:18;3.40;;;2.60;;
61330;SDS011;57640;52.472;-1.950;2023-07-22T07:14:24;4.93;;;2.88;;
61330;SDS011;57640;52.472;-1.950;2023-07-22T07:17:30;3.95;;;2.80;;
61330;SDS011;57640;52.472;-1.950;2023-07-22T07:20:38;3.72;;;2.80;;
61330;SDS011;57640;52.472;-1.950;2023-07-22T07:23:43;4.15;;;3.15;;
61330;SDS011;57640;52.472;-1.950;2023-07-22T07:26:48;3.67;;;3.15;;
61330;SDS011;57640;52.472;-1.950;2023-07-22T07:29:54;3.50;;;2.80;;
61330;SDS011;57640;52.472;-1.950;2023-07-22T07:32:59;4.03;;;3.10;;
61330;SDS011;57640;52.472;-1.950;2023-07-22T07:36:07;4.28;;;3.22;;
61330;SDS011;57640;52.472;-1.950;2023-07-22T07:39:13;4.20;;;3.25;;
61330;SDS011;57640;52.472;-1.950;2023-07-22T07:42:18;4.28;;;2.97;;
61330;SDS011;57640;52.472;-1.950;2023-07-22T07:45:24;4.60;;;3.05;;
61330;SDS011;57640;52.472;-1.950;2023-07-22T07:48:29;3.47;;;2.80;;
61330;SDS011;57640;52.472;-1.950;2023-07-22T07:51:37;4.80;;;3.00;;
61330;SDS011;57640;52.472;-1.950;2023-07-22T07:54:44;3.95;;;2.70;;
61330;SDS011;57640;52.472;-1.950;2023-07-22T07:57:49;3.67;;;3.08;;
61330;SDS011;57640;52.472;-1.950;2023-07-22T08:00:55;3.55;;;2.70;;
61330;SDS011;57640;52.472;-1.950;2023-07-22T08:04:00;3.45;;;2.60;;
61330;SDS011;57640;52.472;-1.950;2023-07-22T08:07:08;4.05;;;2.60;;
61330;SDS011;57640;52.472;-1.950;2023-07-22T08:10:14;4.00;;;2.80;;
61330;SDS011;57640;52.472;-1.950;2023-07-22T08:13:20;3.13;;;2.50;;
61330;SDS011;57640;52.472;-1.950;2023-07-22T08:16:27;3.50;;;2.63;;
61330;SDS011;57640;52.472;-1.950;2023-07-22T08:19:33;3.15;;;2.63;;
61330;SDS011;57640;52.472;-1.950;2023-07-22T08:22:41;3.60;;;2.78;;
61330;SDS011;57640;52.472;-1.950;2023-07-22T08:25:46;2.97;;;2.30;;
61330;SDS011;57640;52.472;-1.950;2023-07-22T08:28:52;3.58;;;2.45;;
61330;SDS011;57640;52.472;-1.950;2023-07-22T08:31:57;3.63;;;2.50;;
61330;SDS011;57640;52.472;-1.950;2023-07-22T08:35:03;3.72;;;2.55;;
61330;SDS011;57640;52.472;-1.950;2023-07-22T08:38:11;3.20;;;2.28;;
61330;SDS011;57640;52.472;-1.950;2023-07-22T08:41:17;3.17;;;2.53;;
61330;SDS011;57640;52.472;-1.950;2023-07-22T08:44:25;3.60;;;2.50;;
61330;SDS011;57640;52.472;-1.950;2023-07-22T08:47:30;2.97;;;2.05;;
61330;SDS011;57640;52.472;-1.950;2023-07-22T08:50:40;3.03;;;2.03;;
61330;SDS011;57640;52.472;-1.950;2023-07-22T08:53:49;2.75;;;2.40;;
61330;SDS011;57640;52.472;-1.950;2023-07-22T08:56:55;2.60;;;2.00;;
61330;SDS011;57640;52.472;-1.950;2023-07-22T09:00:00;3.08;;;2.30;;
61330;SDS011;57640;52.472;-1.950;2023-07-22T09:03:07;2.63;;;2.17;;
61330;SDS011;57640;52.472;-1.950;2023-07-22T09:06:13;2.83;;;2.35;;
61330;SDS011;57640;52.472;-1.950;2023-07-22T09:09:21;2.75;;;2.13;;
61330;SDS011;57640;52.472;-1.950;2023-07-22T09:15:35;2.80;;;2.22;;
61330;SDS011;57640;52.472;-1.950;2023-07-22T09:18:40;3.20;;;2.45;;
61330;SDS011;57640;52.472;-1.950;2023-07-22T09:21:46;2.88;;;2.15;;
61330;SDS011;57640;52.472;-1.950;2023-07-22T09:24:54;3.22;;;2.55;;
61330;SDS011;57640;52.472;-1.950;2023-07-22T09:28:16;2.80;;;2.22;;
61330;SDS011;57640;52.472;-1.950;2023-07-22T09:31:23;3.42;;;2.22;;
61330;SDS011;57640;52.472;-1.950;2023-07-22T09:34:30;3.30;;;2.42;;
61330;SDS011;57640;52.472;-1.950;2023-07-22T09:37:35;3.30;;;2.35;;
61330;SDS011;57640;52.472;-1.950;2023-07-22T09:40:45;3.25;;;2.35;;
61330;SDS011;57640;52.472;-1.950;2023-07-22T09:43:50;2.30;;;1.90;;
61330;SDS011;57640;52.472;-1.950;2023-07-22T09:46:55;2.05;;;1.75;;
61330;SDS011;57640;52.472;-1.950;2023-07-22T09:50:01;3.65;;;2.10;;
61330;SDS011;57640;52.472;-1.950;2023-07-22T09:53:07;2.22;;;1.73;;
61330;SDS011;57640;52.472;-1.950;2023-07-22T09:56:15;2.47;;;1.95;;
61330;SDS011;57640;52.472;-1.950;2023-07-22T09:59:20;2.85;;;2.10;;
61330;SDS011;57640;52.472;-1.950;2023-07-22T10:02:26;3.00;;;1.80;;
61330;SDS011;57640;52.472;-1.950;2023-07-22T10:05:33;2.00;;;1.77;;
61330;SDS011;57640;52.472;-1.950;2023-07-22T10:08:39;2.20;;;1.80;;
61330;SDS011;57640;52.472;-1.950;2023-07-22T10:11:48;2.53;;;1.90;;
61330;SDS011;57640;52.472;-1.950;2023-07-22T10:14:53;2.80;;;1.85;;
61330;SDS011;57640;52.472;-1.950;2023-07-22T10:18:00;2.08;;;1.80;;
61330;SDS011;57640;52.472;-1.950;2023-07-22T10:21:05;2.35;;;1.90;;
61330;SDS011;57640;52.472;-1.950;2023-07-22T10:24:11;2.45;;;1.85;;
61330;SDS011;57640;52.472;-1.950;2023-07-22T10:27:19;2.95;;;1.80;;
61330;SDS011;57640;52.472;-1.950;2023-07-22T10:30:29;2.22;;;1.90;;
61330;SDS011;57640;52.472;-1.950;2023-07-22T10:33:35;3.08;;;1.90;;
61330;SDS011;57640;52.472;-1.950;2023-07-22T10:36:40;2.15;;;1.70;;
61330;SDS011;57640;52.472;-1.950;2023-07-22T10:39:46;2.40;;;1.90;;
61330;SDS011;57640;52.472;-1.950;2023-07-22T10:42:59;2.67;;;2.10;;
61330;SDS011;57640;52.472;-1.950;2023-07-22T10:46:05;2.70;;;1.98;;
61330;SDS011;57640;52.472;-1.950;2023-07-22T10:49:12;2.78;;;2.00;;
61330;SDS011;57640;52.472;-1.950;2023-07-22T10:59:03;2.88;;;2.08;;
61330;SDS011;57640;52.472;-1.950;2023-07-22T11:02:08;2.42;;;1.80;;
61330;SDS011;57640;52.472;-1.950;2023-07-22T11:05:40;2.50;;;2.10;;
61330;SDS011;57640;52.472;-1.950;2023-07-22T11:08:51;2.92;;;2.20;;
61330;SDS011;57640;52.472;-1.950;2023-07-22T11:11:57;2.30;;;1.90;;
61330;SDS011;57640;52.472;-1.950;2023-07-22T11:15:06;2.08;;;1.70;;
61330;SDS011;57640;52.472;-1.950;2023-07-22T11:18:12;2.60;;;1.80;;
61330;SDS011;57640;52.472;-1.950;2023-07-22T11:21:17;2.17;;;1.80;;
61330;SDS011;57640;52.472;-1.950;2023-07-22T11:24:23;2.58;;;1.80;;
61330;SDS011;57640;52.472;-1.950;2023-07-22T11:27:28;2.42;;;1.83;;
61330;SDS011;57640;52.472;-1.950;2023-07-22T11:30:36;2.95;;;2.03;;
61330;SDS011;57640;52.472;-1.950;2023-07-22T11:33:42;2.00;;;1.73;;
61330;SDS011;57640;52.472;-1.950;2023-07-22T11:36:50;2.80;;;2.20;;
61330;SDS011;57640;52.472;-1.950;2023-07-22T11:39:59;2.17;;;1.80;;
61330;SDS011;57640;52.472;-1.950;2023-07-22T11:43:04;2.00;;;1.70;;
61330;SDS011;57640;52.472;-1.950;2023-07-22T11:46:14;2.00;;;1.70;;
61330;SDS011;57640;52.472;-1.950;2023-07-22T11:49:23;2.10;;;1.70;;
61330;SDS011;57640;52.472;-1.950;2023-07-22T11:52:29;2.45;;;1.80;;
61330;SDS011;57640;52.472;-1.950;2023-07-22T11:55:34;2.58;;;1.70;;
61330;SDS011;57640;52.472;-1.950;2023-07-22T11:58:40;2.20;;;1.83;;
61330;SDS011;57640;52.472;-1.950;2023-07-22T12:01:49;2.83;;;1.80;;
61330;SDS011;57640;52.472;-1.950;2023-07-22T12:04:56;2.28;;;1.90;;
61330;SDS011;57640;52.472;-1.950;2023-07-22T12:08:02;2.70;;;2.10;;
61330;SDS011;57640;52.472;-1.950;2023-07-22T12:11:09;2.20;;;1.80;;
61330;SDS011;57640;52.472;-1.950;2023-07-22T12:14:20;2.75;;;1.88;;
61330;SDS011;57640;52.472;-1.950;2023-07-22T12:17:28;2.28;;;1.80;;
61330;SDS011;57640;52.472;-1.950;2023-07-22T12:20:33;2.47;;;1.85;;
61330;SDS011;57640;52.472;-1.950;2023-07-22T12:23:39;2.70;;;1.90;;
61330;SDS011;57640;52.472;-1.950;2023-07-22T12:26:45;2.50;;;1.80;;
61330;SDS011;57640;52.472;-1.950;2023-07-22T12:29:50;2.13;;;1.70;;
61330;SDS011;57640;52.472;-1.950;2023-07-22T12:32:58;2.05;;;1.63;;
61330;SDS011;57640;52.472;-1.950;2023-07-22T12:36:04;2.00;;;1.70;;
61330;SDS011;57640;52.472;-1.950;2023-07-22T12:39:09;1.95;;;1.75;;
61330;SDS011;57640;52.472;-1.950;2023-07-22T12:42:17;2.03;;;1.70;;
61330;SDS011;57640;52.472;-1.950;2023-07-22T12:45:23;1.95;;;1.70;;
61330;SDS011;57640;52.472;-1.950;2023-07-22T12:48:31;2.65;;;1.70;;
61330;SDS011;57640;52.472;-1.950;2023-07-22T12:51:36;2.15;;;1.77;;
61330;SDS011;57640;52.472;-1.950;2023-07-22T12:54:41;1.80;;;1.58;;
61330;SDS011;57640;52.472;-1.950;2023-07-22T12:57:47;2.08;;;1.70;;
61330;SDS011;57640;52.472;-1.950;2023-07-22T13:00:53;2.60;;;1.80;;
61330;SDS011;57640;52.472;-1.950;2023-07-22T13:04:01;1.80;;;1.52;;
61330;SDS011;57640;52.472;-1.950;2023-07-22T13:07:06;1.75;;;1.52;;
61330;SDS011;57640;52.472;-1.950;2023-07-22T13:10:11;2.95;;;1.88;;
61330;SDS011;57640;52.472;-1.950;2023-07-22T13:13:20;2.00;;;1.60;;
61330;SDS011;57640;52.472;-1.950;2023-07-22T13:16:25;1.90;;;1.50;;
61330;SDS011;57640;52.472;-1.950;2023-07-22T13:19:33;2.22;;;1.70;;
61330;SDS011;57640;52.472;-1.950;2023-07-22T13:22:39;1.70;;;1.48;;
61330;SDS011;57640;52.472;-1.950;2023-07-22T13:25:44;2.90;;;1.50;;
61330;SDS011;57640;52.472;-1.950;2023-07-22T13:28:50;2.70;;;1.67;;
61330;SDS011;57640;52.472;-1.950;2023-07-22T13:31:55;2.10;;;1.60;;
61330;SDS011;57640;52.472;-1.950;2023-07-22T13:35:04;2.00;;;1.50;;
61330;SDS011;57640;52.472;-1.950;2023-07-22T13:38:10;2.00;;;1.50;;
61330;SDS011;57640;52.472;-1.950;2023-07-22T13:41:15;1.75;;;1.42;;
61330;SDS011;57640;52.472;-1.950;2023-07-22T13:44:21;2.05;;;1.60;;
61330;SDS011;57640;52.472;-1.950;2023-07-22T13:47:26;3.15;;;1.40;;
61330;SDS011;57640;52.472;-1.950;2023-07-22T13:50:34;1.67;;;1.20;;
61330;SDS011;57640;52.472;-1.950;2023-07-22T13:53:40;4.32;;;1.83;;
61330;SDS011;57640;52.472;-1.950;2023-07-22T13:56:45;5.95;;;1.77;;
61330;SDS011;57640;52.472;-1.950;2023-07-22T13:59:51;7.38;;;1.92;;
61330;SDS011;57640;52.472;-1.950;2023-07-22T14:02:56;7.15;;;2.30;;
61330;SDS011;57640;52.472;-1.950;2023-07-22T14:06:05;5.75;;;2.00;;
61330;SDS011;57640;52.472;-1.950;2023-07-22T14:09:10;4.18;;;2.08;;
61330;SDS011;57640;52.472;-1.950;2023-07-22T14:12:15;4.60;;;1.90;;
61330;SDS011;57640;52.472;-1.950;2023-07-22T14:15:21;3.97;;;1.63;;
61330;SDS011;57640;52.472;-1.950;2023-07-22T14:18:26;6.07;;;1.63;;
61330;SDS011;57640;52.472;-1.950;2023-07-22T14:21:34;4.20;;;1.50;;
61330;SDS011;57640;52.472;-1.950;2023-07-22T14:24:40;3.00;;;1.58;;
61330;SDS011;57640;52.472;-1.950;2023-07-22T14:27:45;8.13;;;1.63;;
61330;SDS011;57640;52.472;-1.950;2023-07-22T14:30:51;2.40;;;1.55;;
61330;SDS011;57640;52.472;-1.950;2023-07-22T14:33:56;2.30;;;1.60;;
61330;SDS011;57640;52.472;-1.950;2023-07-22T14:37:05;2.28;;;1.40;;
61330;SDS011;57640;52.472;-1.950;2023-07-22T14:40:18;3.90;;;1.70;;
61330;SDS011;57640;52.472;-1.950;2023-07-22T14:43:23;3.55;;;1.60;;
61330;SDS011;57640;52.472;-1.950;2023-07-22T14:46:29;4.43;;;1.60;;
61330;SDS011;57640;52.472;-1.950;2023-07-22T14:49:34;4.78;;;1.52;;
61330;SDS011;57640;52.472;-1.950;2023-07-22T14:52:42;2.83;;;1.58;;
61330;SDS011;57640;52.472;-1.950;2023-07-22T14:55:47;1.98;;;1.50;;
61330;SDS011;57640;52.472;-1.950;2023-07-22T14:58:53;2.78;;;1.65;;
61330;SDS011;57640;52.472;-1.950;2023-07-22T15:01:58;2.30;;;1.58;;
61330;SDS011;57640;52.472;-1.950;2023-07-22T15:05:04;2.97;;;1.83;;
61330;SDS011;57640;52.472;-1.950;2023-07-22T15:08:12;1.80;;;1.52;;
61330;SDS011;57640;52.472;-1.950;2023-07-22T15:11:17;1.92;;;1.52;;
61330;SDS011;57640;52.472;-1.950;2023-07-22T15:14:22;1.90;;;1.48;;
61330;SDS011;57640;52.472;-1.950;2023-07-22T15:17:28;2.60;;;1.73;;
61330;SDS011;57640;52.472;-1.950;2023-07-22T15:20:35;1.83;;;1.60;;
61330;SDS011;57640;52.472;-1.950;2023-07-22T15:23:43;2.30;;;1.50;;
61330;SDS011;57640;52.472;-1.950;2023-07-22T15:26:48;1.83;;;1.50;;
61330;SDS011;57640;52.472;-1.950;2023-07-22T15:29:54;2.50;;;1.65;;
61330;SDS011;57640;52.472;-1.950;2023-07-22T15:32:59;2.15;;;1.70;;
61330;SDS011;57640;52.472;-1.950;2023-07-22T15:36:04;2.42;;;1.50;;
61330;SDS011;57640;52.472;-1.950;2023-07-22T15:39:12;2.80;;;1.60;;
61330;SDS011;57640;52.472;-1.950;2023-07-22T15:42:18;3.60;;;1.77;;
61330;SDS011;57640;52.472;-1.950;2023-07-22T15:45:24;2.65;;;1.88;;
61330;SDS011;57640;52.472;-1.950;2023-07-22T15:48:29;1.90;;;1.60;;
61330;SDS011;57640;52.472;-1.950;2023-07-22T15:51:34;2.45;;;1.88;;
61330;SDS011;57640;52.472;-1.950;2023-07-22T15:54:42;1.92;;;1.50;;
61330;SDS011;57640;52.472;-1.950;2023-07-22T15:57:48;2.17;;;1.70;;
61330;SDS011;57640;52.472;-1.950;2023-07-22T16:00:54;2.03;;;1.70;;
61330;SDS011;57640;52.472;-1.950;2023-07-22T16:03:59;2.03;;;1.60;;
61330;SDS011;57640;52.472;-1.950;2023-07-22T16:07:05;2.08;;;1.52;;
61330;SDS011;57640;52.472;-1.950;2023-07-22T16:10:13;1.30;;;1.20;;
61330;SDS011;57640;52.472;-1.950;2023-07-22T16:13:18;1.60;;;1.35;;
61330;SDS011;57640;52.472;-1.950;2023-07-22T16:16:24;1.50;;;1.20;;
61330;SDS011;57640;52.472;-1.950;2023-07-22T16:19:29;1.73;;;1.50;;
61330;SDS011;57640;52.472;-1.950;2023-07-22T16:22:35;2.70;;;1.50;;
61330;SDS011;57640;52.472;-1.950;2023-07-22T16:25:43;1.75;;;1.13;;
61330;SDS011;57640;52.472;-1.950;2023-07-22T16:28:48;1.65;;;1.33;;
61330;SDS011;57640;52.472;-1.950;2023-07-22T16:31:53;2.30;;;1.50;;
61330;SDS011;57640;52.472;-1.950;2023-07-22T16:34:59;1.77;;;1.30;;
61330;SDS011;57640;52.472;-1.950;2023-07-22T16:38:05;1.92;;;1.35;;
61330;SDS011;57640;52.472;-1.950;2023-07-22T16:41:13;1.52;;;1.33;;
61330;SDS011;57640;52.472;-1.950;2023-07-22T16:44:18;1.98;;;1.10;;
61330;SDS011;57640;52.472;-1.950;2023-07-22T16:47:24;1.92;;;1.20;;
61330;SDS011;57640;52.472;-1.950;2023-07-22T16:50:30;1.10;;;1.00;;
61330;SDS011;57640;52.472;-1.950;2023-07-22T16:53:35;1.50;;;1.20;;
61330;SDS011;57640;52.472;-1.950;2023-07-22T16:56:43;1.63;;;1.23;;
61330;SDS011;57640;52.472;-1.950;2023-07-22T16:59:49;1.33;;;1.00;;
61330;SDS011;57640;52.472;-1.950;2023-07-22T17:02:54;2.50;;;1.00;;
61330;SDS011;57640;52.472;-1.950;2023-07-22T17:06:00;1.60;;;1.20;;
61330;SDS011;57640;52.472;-1.950;2023-07-22T17:09:05;2.08;;;1.00;;
61330;SDS011;57640;52.472;-1.950;2023-07-22T17:12:13;1.10;;;0.93;;
61330;SDS011;57640;52.472;-1.950;2023-07-22T17:15:18;2.15;;;1.00;;
61330;SDS011;57640;52.472;-1.950;2023-07-22T17:18:24;1.15;;;1.00;;
61330;SDS011;57640;52.472;-1.950;2023-07-22T17:21:29;1.75;;;1.30;;
61330;SDS011;57640;52.472;-1.950;2023-07-22T17:24:35;2.17;;;1.00;;
61330;SDS011;57640;52.472;-1.950;2023-07-22T17:27:43;1.35;;;1.05;;
61330;SDS011;57640;52.472;-1.950;2023-07-22T17:30:48;2.45;;;1.05;;
61330;SDS011;57640;52.472;-1.950;2023-07-22T17:33:54;1.58;;;1.00;;
61330;SDS011;57640;52.472;-1.950;2023-07-22T17:36:59;1.25;;;1.10;;
61330;SDS011;57640;52.472;-1.950;2023-07-22T17:40:05;2.08;;;1.38;;
61330;SDS011;57640;52.472;-1.950;2023-07-22T17:43:13;1.45;;;1.20;;
61330;SDS011;57640;52.472;-1.950;2023-07-22T17:46:21;1.70;;;1.30;;
61330;SDS011;57640;52.472;-1.950;2023-07-22T17:49:26;1.95;;;1.23;;
61330;SDS011;57640;52.472;-1.950;2023-07-22T17:52:32;1.40;;;1.20;;
61330;SDS011;57640;52.472;-1.950;2023-07-22T17:55:37;1.30;;;1.20;;
61330;SDS011;57640;52.472;-1.950;2023-07-22T17:58:45;1.17;;;1.08;;
61330;SDS011;57640;52.472;-1.950;2023-07-22T18:01:51;1.65;;;1.20;;
61330;SDS011;57640;52.472;-1.950;2023-07-22T18:04:56;1.33;;;1.13;;
61330;SDS011;57640;52.472;-1.950;2023-07-22T18:08:04;1.67;;;1.25;;
61330;SDS011;57640;52.472;-1.950;2023-07-22T18:11:09;1.88;;;1.10;;
61330;SDS011;57640;52.472;-1.950;2023-07-22T18:14:17;1.10;;;1.00;;
61330;SDS011;57640;52.472;-1.950;2023-07-22T18:17:22;1.58;;;0.90;;
61330;SDS011;57640;52.472;-1.950;2023-07-22T18:20:28;1.10;;;1.00;;
61330;SDS011;57640;52.472;-1.950;2023-07-22T18:23:33;1.20;;;1.10;;
61330;SDS011;57640;52.472;-1.950;2023-07-22T18:26:39;1.08;;;0.80;;
61330;SDS011;57640;52.472;-1.950;2023-07-22T18:29:47;0.70;;;0.70;;
61330;SDS011;57640;52.472;-1.950;2023-07-22T18:32:53;1.30;;;0.88;;
61330;SDS011;57640;52.472;-1.950;2023-07-22T18:35:58;1.00;;;0.80;;
61330;SDS011;57640;52.472;-1.950;2023-07-22T18:39:06;1.27;;;0.90;;